createdAt,value
2023-04-21T00:02:18.828Z,11.43
2023-04-21T00:07:23.674Z,11.60
2023-04-21T00:12:29.423Z,11.90
2023-04-21T00:17:33.616Z,12.10
2023-04-21T00:22:38.046Z,12.50
2023-04-21T00:27:43.759Z,12.88
2023-04-21T00:32:48.194Z,13.20
2023-04-21T00:37:53.066Z,14.60
2023-04-21T00:42:59.206Z,12.88
2023-04-21T00:48:06.233Z,12.50
2023-04-21T00:53:11.171Z,13.23
2023-04-21T00:58:16.713Z,12.38
2023-04-21T01:03:21.244Z,12.05
2023-04-21T01:08:25.572Z,14.65
2023-04-21T01:13:31.382Z,13.13
2023-04-21T01:18:36.673Z,11.43
2023-04-21T01:23:45.452Z,10.63
2023-04-21T01:28:50.133Z,13.37
2023-04-21T01:33:54.617Z,11.45
2023-04-21T01:39:00.415Z,15.30
2023-04-21T01:44:07.279Z,11.15
2023-04-21T01:49:11.785Z,12.55
2023-04-21T01:54:17.475Z,12.02
2023-04-21T01:59:22.017Z,13.68
2023-04-21T02:04:26.373Z,13.70
2023-04-21T02:09:33.057Z,13.50
2023-04-21T02:14:38.755Z,14.15
2023-04-21T02:19:44.838Z,13.68
2023-04-21T02:24:50.645Z,14.75
2023-04-21T02:29:56.921Z,12.90
2023-04-21T02:35:01.366Z,15.38
2023-04-21T02:40:08.427Z,13.30
2023-04-21T02:45:13.514Z,18.20
2023-04-21T02:50:17.744Z,16.52
2023-04-21T02:55:23.533Z,13.18
2023-04-21T03:00:27.982Z,12.40
2023-04-21T03:05:32.499Z,11.93
2023-04-21T03:10:40.102Z,14.65
2023-04-21T03:15:45.162Z,14.65
2023-04-21T03:20:49.664Z,14.40
2023-04-21T03:25:55.230Z,14.02
2023-04-21T03:30:59.347Z,15.23
2023-04-21T03:36:04.458Z,14.13
2023-04-21T03:41:09.923Z,13.52
2023-04-21T03:46:23.702Z,15.40
2023-04-21T03:51:28.410Z,21.50
2023-04-21T03:56:34.205Z,24.80
2023-04-21T04:01:38.437Z,76.82
2023-04-21T04:06:42.619Z,31.65
2023-04-21T04:11:48.314Z,34.55
2023-04-21T04:16:52.684Z,29.00
2023-04-21T04:21:57.177Z,20.23
2023-04-21T04:27:03.514Z,22.00
2023-04-21T04:32:11.311Z,20.25
2023-04-21T04:37:15.495Z,23.85
2023-04-21T04:42:21.401Z,18.77
2023-04-21T04:47:26.348Z,24.25
2023-04-21T04:52:30.937Z,18.60
2023-04-21T04:57:36.650Z,16.65
2023-04-21T05:02:41.259Z,44.70
2023-04-21T05:07:46.082Z,34.42
2023-04-21T05:12:52.265Z,25.40
2023-04-21T05:17:56.776Z,22.08
2023-04-21T05:23:01.632Z,16.38
2023-04-21T05:28:07.292Z,12.90
2023-04-21T05:33:11.904Z,14.20
2023-04-21T05:38:16.457Z,29.98
2023-04-21T05:43:22.798Z,22.42
2023-04-21T05:48:27.245Z,17.88
2023-04-21T05:53:31.459Z,91.10
2023-04-21T05:58:37.479Z,193.38
2023-04-21T06:03:42.209Z,88.78
2023-04-21T06:08:46.630Z,114.65
2023-04-21T06:13:53.924Z,58.92
2023-04-21T06:18:59.322Z,86.80
2023-04-21T06:24:03.820Z,22.98
2023-04-21T06:29:12.234Z,94.10
2023-04-21T06:34:17.252Z,68.18
2023-04-21T06:39:21.719Z,72.93
2023-04-21T06:44:27.275Z,41.63
2023-04-21T06:49:31.436Z,64.95
2023-04-21T06:54:35.791Z,33.17
2023-04-21T06:59:41.451Z,54.88
2023-04-21T07:04:45.775Z,65.57
2023-04-21T07:09:50.517Z,59.72
2023-04-21T07:14:56.204Z,74.57
2023-04-21T07:20:00.421Z,112.93
2023-04-21T07:25:06.550Z,51.60
2023-04-21T07:30:13.299Z,39.45
2023-04-21T07:35:17.999Z,8.68
2023-04-21T07:40:22.627Z,20.25
2023-04-21T07:45:28.273Z,11.45
2023-04-21T07:50:32.863Z,23.45
2023-04-21T07:55:37.502Z,22.05
2023-04-21T08:00:43.935Z,10.02
2023-04-21T08:12:55.647Z,6.45
2023-04-21T08:18:02.308Z,11.15
2023-04-21T08:28:39.514Z,29.30
2023-04-21T08:33:58.062Z,12.82
2023-04-21T08:39:11.536Z,10.65
2023-04-21T08:44:27.033Z,15.23
2023-04-21T08:49:58.905Z,8.20
2023-04-21T08:55:09.451Z,8.00
2023-04-21T09:00:18.706Z,9.93
2023-04-21T09:06:36.536Z,14.67
2023-04-21T09:18:19.894Z,7.32
2023-04-21T09:23:24.954Z,15.25
2023-04-21T09:28:33.430Z,7.45
2023-04-21T09:33:49.589Z,6.22
2023-04-21T09:39:30.036Z,6.35
2023-04-21T09:56:00.041Z,7.03
2023-04-21T10:01:04.952Z,8.82
2023-04-21T10:12:54.036Z,5.82
2023-04-21T10:18:13.552Z,5.57
2023-04-21T10:29:17.054Z,6.35
2023-04-21T10:34:23.876Z,4.68
2023-04-21T10:39:33.749Z,4.90
2023-04-21T10:51:08.783Z,4.70
2023-04-21T10:56:14.031Z,7.35
2023-04-21T11:08:31.379Z,4.55
2023-04-21T11:13:35.872Z,5.65
2023-04-21T11:18:42.394Z,4.80
2023-04-21T11:23:59.070Z,4.93
2023-04-21T11:34:48.109Z,6.45
2023-04-21T11:40:28.744Z,4.85
2023-04-21T11:51:40.494Z,4.05
2023-04-21T11:56:49.119Z,4.60
2023-04-21T12:01:55.331Z,4.32
2023-04-21T12:13:32.735Z,5.03
2023-04-21T12:18:37.961Z,4.28
2023-04-21T12:23:42.107Z,5.95
2023-04-21T12:29:39.345Z,4.88
2023-04-21T12:41:36.616Z,4.40
2023-04-21T12:46:41.086Z,4.57
2023-04-21T12:51:45.751Z,4.63
2023-04-21T12:56:51.750Z,8.20
2023-04-21T13:01:56.700Z,13.32
2023-04-21T13:07:01.569Z,3.45
2023-04-21T13:12:07.691Z,6.28
2023-04-21T13:17:12.826Z,3.70
2023-04-21T13:22:17.356Z,4.00
2023-04-21T13:27:22.944Z,5.35
2023-04-21T13:32:27.533Z,4.10
2023-04-21T13:37:31.800Z,3.70
2023-04-21T13:42:37.931Z,3.20
2023-04-21T13:47:42.457Z,3.92
2023-04-21T13:52:46.757Z,18.65
2023-04-21T13:57:52.858Z,5.28
2023-04-21T14:02:57.580Z,4.60
2023-04-21T14:08:02.028Z,3.45
2023-04-21T14:13:07.814Z,3.25
2023-04-21T14:18:12.259Z,2.75
2023-04-21T14:23:16.873Z,3.33
2023-04-21T14:28:22.801Z,2.88
2023-04-21T14:33:27.070Z,11.00
2023-04-21T14:38:31.393Z,4.95
2023-04-21T14:43:37.020Z,3.42
2023-04-21T14:48:42.350Z,3.22
2023-04-21T14:53:47.207Z,3.35
2023-04-21T14:58:52.731Z,3.42
2023-04-21T15:04:00.000Z,4.05
2023-04-21T15:09:05.562Z,3.78
2023-04-21T15:14:11.172Z,3.20
2023-04-21T15:19:15.708Z,3.63
2023-04-21T15:24:20.083Z,3.53
2023-04-21T15:29:25.877Z,13.70
2023-04-21T15:34:30.325Z,18.73
2023-04-21T15:39:34.914Z,8.85
2023-04-21T15:44:40.994Z,3.58
2023-04-21T15:49:45.561Z,5.22
2023-04-21T15:54:51.283Z,4.05
2023-04-21T15:59:57.808Z,6.45
2023-04-21T16:05:02.532Z,4.13
2023-04-21T16:10:08.373Z,3.65
2023-04-21T16:15:23.736Z,4.88
2023-04-21T16:20:29.252Z,4.38
2023-04-21T16:25:33.919Z,12.48
2023-04-21T16:30:43.670Z,14.20
2023-04-21T16:35:48.452Z,13.55
2023-04-21T16:40:53.152Z,28.75
2023-04-21T16:45:59.029Z,14.57
2023-04-21T16:51:03.732Z,7.18
2023-04-21T16:56:08.783Z,4.93
2023-04-21T17:01:14.680Z,5.15
2023-04-21T17:06:21.598Z,4.18
2023-04-21T17:11:25.753Z,5.30
2023-04-21T17:16:32.075Z,4.93
2023-04-21T17:21:36.563Z,5.18
2023-04-21T17:26:41.021Z,8.93
2023-04-21T17:31:47.002Z,6.32
2023-04-21T17:36:51.443Z,6.75
2023-04-21T17:41:55.995Z,8.55
2023-04-21T17:47:02.287Z,7.68
2023-04-21T17:52:08.214Z,8.07
2023-04-21T17:57:14.635Z,8.48
2023-04-21T18:02:20.242Z,10.25
2023-04-21T18:07:24.757Z,10.30
2023-04-21T18:12:29.312Z,11.57
2023-04-21T18:17:37.178Z,14.10
2023-04-21T18:22:43.049Z,12.55
2023-04-21T18:27:47.266Z,15.07
2023-04-21T18:32:53.391Z,21.08
2023-04-21T18:37:57.907Z,24.95
2023-04-21T18:43:02.092Z,16.17
2023-04-21T18:48:08.436Z,9.90
2023-04-21T18:53:12.699Z,16.52
2023-04-21T18:58:17.388Z,18.90
2023-04-21T19:03:25.350Z,10.60
2023-04-21T19:13:48.497Z,11.15
2023-04-21T19:18:54.313Z,12.45
2023-04-21T19:23:58.654Z,17.88
2023-04-21T19:29:03.018Z,22.45
2023-04-21T19:34:08.618Z,23.25
2023-04-21T19:39:13.393Z,12.75
2023-04-21T19:44:17.944Z,12.82
2023-04-21T19:49:24.176Z,17.52
2023-04-21T19:54:28.598Z,11.30
2023-04-21T19:59:34.761Z,14.05
2023-04-21T20:04:40.866Z,14.40
2023-04-21T20:09:45.307Z,19.25
2023-04-21T20:14:49.605Z,15.15
2023-04-21T20:19:55.402Z,32.60
2023-04-21T20:24:59.704Z,22.63
2023-04-21T20:30:04.228Z,17.38
2023-04-21T20:35:11.996Z,19.90
2023-04-21T20:40:18.870Z,26.90
2023-04-21T20:45:23.181Z,19.35
2023-04-21T20:50:29.027Z,21.63
2023-04-21T20:55:33.305Z,38.88
2023-04-21T21:00:37.533Z,53.78
2023-04-21T21:05:43.643Z,62.20
2023-04-21T21:10:47.837Z,76.10
2023-04-21T21:15:52.428Z,31.90
2023-04-21T21:20:58.156Z,31.35
2023-04-21T21:26:02.533Z,20.65
2023-04-21T21:31:07.148Z,61.13
2023-04-21T21:36:12.820Z,22.65
2023-04-21T21:41:18.805Z,23.92
2023-04-21T21:46:23.646Z,60.30
2023-04-21T21:51:30.191Z,24.60
2023-04-21T21:56:34.684Z,21.88
2023-04-21T22:01:38.942Z,27.27
2023-04-21T22:06:45.805Z,45.33
2023-04-21T22:11:49.977Z,36.78
2023-04-21T22:16:54.554Z,22.70
2023-04-21T22:22:00.230Z,23.20
2023-04-21T22:27:04.634Z,71.55
2023-04-21T22:32:08.764Z,119.60
2023-04-21T22:37:14.490Z,101.72
2023-04-21T22:42:19.127Z,79.80
2023-04-21T22:47:23.642Z,152.18
2023-04-21T22:52:29.244Z,90.18
2023-04-21T22:57:34.007Z,134.73
2023-04-21T23:02:38.772Z,63.50
2023-04-21T23:07:44.688Z,51.58
2023-04-21T23:12:49.219Z,24.05
2023-04-21T23:17:53.512Z,36.03
2023-04-21T23:22:59.338Z,18.13
2023-04-21T23:28:03.720Z,17.42
2023-04-21T23:33:08.130Z,21.83
2023-04-21T23:38:13.899Z,13.90
2023-04-21T23:43:18.099Z,13.55
2023-04-21T23:48:22.490Z,12.77
2023-04-21T23:53:28.160Z,14.55
2023-04-21T23:58:32.578Z,24.13
